Terminal Aerodrome Forecast
Issued by NWS Louisville, KY

Home | Current Version | Previous Version | Text Only | Print | Product List | Glossary On
Versions: 1 2 3 4 5 6 7 8 9 10 11 12 13 14 15 16 17 18 19
398
FTUS43 KLMK 200640 AAB
TAFBWG
TAF AMD
KBWG 200640Z 2007/2106 00000KT 2SM BR SKC
      TEMPO 2007/2011 1/2SM FG SKC
     FM201100 00000KT 3/4SM BR SKC
     FM201200 14005KT P6SM FEW250
      TEMPO 2012/2013 3SM BR=

USA.gov is the U.S. government's official web portal to all federal, state and local government web resources and services.